sensor_id;sensor_type;location;lat;lon;timestamp;pressure;altitude;pressure_sealevel;temperature;humidity
74631;BME280;63138;55.082;38.804;2023-03-01T00:02:12;98994.06;;;-5.38;58.01
74631;BME280;63138;55.082;38.804;2023-03-01T00:04:38;99000.13;;;-5.35;58.50
74631;BME280;63138;55.082;38.804;2023-03-01T00:07:03;99005.22;;;-5.32;58.41
74631;BME280;63138;55.082;38.804;2023-03-01T00:09:29;98998.31;;;-5.35;58.21
74631;BME280;63138;55.082;38.804;2023-03-01T00:11:55;98999.38;;;-5.38;58.25
74631;BME280;63138;55.082;38.804;2023-03-01T00:14:21;98983.13;;;-5.46;58.63
74631;BME280;63138;55.082;38.804;2023-03-01T00:16:47;98987.66;;;-5.48;58.05
74631;BME280;63138;55.082;38.804;2023-03-01T00:19:15;98982.78;;;-5.54;58.28
74631;BME280;63138;55.082;38.804;2023-03-01T00:21:41;98981.47;;;-5.61;58.42
74631;BME280;63138;55.082;38.804;2023-03-01T00:24:07;98979.13;;;-5.66;59.09
74631;BME280;63138;55.082;38.804;2023-03-01T00:26:33;98982.50;;;-5.64;58.55
74631;BME280;63138;55.082;38.804;2023-03-01T00:29:00;98977.53;;;-5.68;58.31
74631;BME280;63138;55.082;38.804;2023-03-01T00:31:28;98968.38;;;-5.77;58.94
74631;BME280;63138;55.082;38.804;2023-03-01T00:33:56;98968.88;;;-5.85;59.29
74631;BME280;63138;55.082;38.804;2023-03-01T00:36:35;98970.09;;;-5.90;59.21
74631;BME280;63138;55.082;38.804;2023-03-01T00:39:03;98965.31;;;-5.98;59.20
74631;BME280;63138;55.082;38.804;2023-03-01T00:41:29;98974.31;;;-6.01;59.61
74631;BME280;63138;55.082;38.804;2023-03-01T00:43:55;98971.84;;;-6.04;59.81
74631;BME280;63138;55.082;38.804;2023-03-01T00:46:24;98979.09;;;-6.07;59.58
74631;BME280;63138;55.082;38.804;2023-03-01T00:48:50;98970.59;;;-6.12;59.71
74631;BME280;63138;55.082;38.804;2023-03-01T00:51:20;98961.44;;;-6.21;59.96
74631;BME280;63138;55.082;38.804;2023-03-01T00:53:50;98972.16;;;-6.23;59.94
74631;BME280;63138;55.082;38.804;2023-03-01T00:56:16;98971.56;;;-6.28;60.59
74631;BME280;63138;55.082;38.804;2023-03-01T00:58:43;98969.84;;;-6.29;60.40
74631;BME280;63138;55.082;38.804;2023-03-01T01:01:11;98962.13;;;-6.32;60.09
74631;BME280;63138;55.082;38.804;2023-03-01T01:03:54;98970.25;;;-6.35;59.83
74631;BME280;63138;55.082;38.804;2023-03-01T01:06:24;98967.78;;;-6.38;60.40
74631;BME280;63138;55.082;38.804;2023-03-01T01:08:51;98961.00;;;-6.42;60.74
74631;BME280;63138;55.082;38.804;2023-03-01T01:11:17;98967.22;;;-6.43;60.70
74631;BME280;63138;55.082;38.804;2023-03-01T01:13:45;98963.81;;;-6.45;59.83
74631;BME280;63138;55.082;38.804;2023-03-01T01:16:12;98957.22;;;-6.53;59.81
74631;BME280;63138;55.082;38.804;2023-03-01T01:18:38;98957.78;;;-6.62;59.86
74631;BME280;63138;55.082;38.804;2023-03-01T01:21:09;98951.16;;;-6.69;60.18
74631;BME280;63138;55.082;38.804;2023-03-01T01:23:37;98958.91;;;-6.66;60.07
74631;BME280;63138;55.082;38.804;2023-03-01T01:26:08;98936.88;;;-6.81;59.92
74631;BME280;63138;55.082;38.804;2023-03-01T01:28:35;98956.44;;;-6.69;59.85
74631;BME280;63138;55.082;38.804;2023-03-01T01:31:01;98973.41;;;-6.73;59.71
74631;BME280;63138;55.082;38.804;2023-03-01T01:33:27;98974.50;;;-6.77;60.01
74631;BME280;63138;55.082;38.804;2023-03-01T01:35:53;98978.28;;;-6.81;60.20
74631;BME280;63138;55.082;38.804;2023-03-01T01:38:19;98971.50;;;-6.85;59.76
74631;BME280;63138;55.082;38.804;2023-03-01T01:40:45;98972.72;;;-6.91;59.90
74631;BME280;63138;55.082;38.804;2023-03-01T01:43:27;98977.91;;;-6.89;60.42
74631;BME280;63138;55.082;38.804;2023-03-01T01:45:59;98968.44;;;-6.94;60.10
74631;BME280;63138;55.082;38.804;2023-03-01T01:48:34;98955.78;;;-7.03;60.08
74631;BME280;63138;55.082;38.804;2023-03-01T01:51:09;98969.00;;;-7.03;60.00
74631;BME280;63138;55.082;38.804;2023-03-01T01:53:37;98964.00;;;-7.07;59.99
74631;BME280;63138;55.082;38.804;2023-03-01T01:56:06;98964.00;;;-7.07;60.21
74631;BME280;63138;55.082;38.804;2023-03-01T01:58:33;98955.28;;;-7.09;60.76
74631;BME280;63138;55.082;38.804;2023-03-01T02:00:59;98968.59;;;-7.11;60.40
74631;BME280;63138;55.082;38.804;2023-03-01T02:03:31;98957.53;;;-7.18;60.42
74631;BME280;63138;55.082;38.804;2023-03-01T02:06:27;98963.88;;;-7.06;60.52
74631;BME280;63138;55.082;38.804;2023-03-01T02:08:57;98960.56;;;-7.09;60.88
74631;BME280;63138;55.082;38.804;2023-03-01T02:11:25;98952.19;;;-7.16;60.05
74631;BME280;63138;55.082;38.804;2023-03-01T02:13:54;98962.38;;;-7.10;60.52
74631;BME280;63138;55.082;38.804;2023-03-01T02:16:20;98965.84;;;-7.09;60.63
74631;BME280;63138;55.082;38.804;2023-03-01T02:18:46;98961.63;;;-7.12;60.44
74631;BME280;63138;55.082;38.804;2023-03-01T02:21:43;98971.41;;;-7.14;60.66
74631;BME280;63138;55.082;38.804;2023-03-01T02:26:54;98961.31;;;-7.22;60.03
74631;BME280;63138;55.082;38.804;2023-03-01T02:29:22;98958.91;;;-7.26;60.57
74631;BME280;63138;55.082;38.804;2023-03-01T02:31:51;98960.88;;;-7.30;61.00
74631;BME280;63138;55.082;38.804;2023-03-01T02:34:21;98974.25;;;-7.33;60.54
74631;BME280;63138;55.082;38.804;2023-03-01T02:36:55;98965.66;;;-7.37;60.99
74631;BME280;63138;55.082;38.804;2023-03-01T02:39:33;98968.28;;;-7.37;61.03
74631;BME280;63138;55.082;38.804;2023-03-01T02:42:01;98976.22;;;-7.37;61.16
74631;BME280;63138;55.082;38.804;2023-03-01T02:44:28;98964.31;;;-7.44;61.33
74631;BME280;63138;55.082;38.804;2023-03-01T02:46:56;98972.97;;;-7.42;61.16
74631;BME280;63138;55.082;38.804;2023-03-01T02:49:31;98966.84;;;-7.42;61.40
74631;BME280;63138;55.082;38.804;2023-03-01T02:57:30;98979.66;;;-7.51;61.21
74631;BME280;63138;55.082;38.804;2023-03-01T03:00:00;98965.88;;;-7.56;61.44
74631;BME280;63138;55.082;38.804;2023-03-01T03:02:33;98972.81;;;-7.55;61.75
74631;BME280;63138;55.082;38.804;2023-03-01T03:05:21;98978.28;;;-7.58;61.42
74631;BME280;63138;55.082;38.804;2023-03-01T03:07:51;98980.81;;;-7.56;61.67
74631;BME280;63138;55.082;38.804;2023-03-01T03:10:20;98985.25;;;-7.57;61.35
74631;BME280;63138;55.082;38.804;2023-03-01T03:12:53;98974.78;;;-7.58;61.69
74631;BME280;63138;55.082;38.804;2023-03-01T03:15:20;98965.28;;;-7.61;61.79
74631;BME280;63138;55.082;38.804;2023-03-01T03:17:46;98973.19;;;-7.61;62.20
74631;BME280;63138;55.082;38.804;2023-03-01T03:20:16;98964.50;;;-7.63;62.37
74631;BME280;63138;55.082;38.804;2023-03-01T03:22:48;98967.91;;;-7.61;62.06
74631;BME280;63138;55.082;38.804;2023-03-01T03:25:16;98961.78;;;-7.61;62.51
74631;BME280;63138;55.082;38.804;2023-03-01T03:27:43;98957.28;;;-7.59;62.50
74631;BME280;63138;55.082;38.804;2023-03-01T03:30:12;98959.03;;;-7.60;61.98
74631;BME280;63138;55.082;38.804;2023-03-01T03:32:40;98960.66;;;-7.57;62.85
74631;BME280;63138;55.082;38.804;2023-03-01T03:35:07;98962.72;;;-7.62;63.02
74631;BME280;63138;55.082;38.804;2023-03-01T03:37:38;98971.47;;;-7.62;62.42
74631;BME280;63138;55.082;38.804;2023-03-01T03:40:23;98975.06;;;-7.63;62.41
74631;BME280;63138;55.082;38.804;2023-03-01T03:42:49;98967.22;;;-7.64;62.43
74631;BME280;63138;55.082;38.804;2023-03-01T03:45:18;98977.78;;;-7.64;62.59
74631;BME280;63138;55.082;38.804;2023-03-01T03:47:44;98980.72;;;-7.71;62.92
74631;BME280;63138;55.082;38.804;2023-03-01T03:50:12;98976.41;;;-7.72;62.64
74631;BME280;63138;55.082;38.804;2023-03-01T03:52:38;98983.72;;;-7.77;63.11
74631;BME280;63138;55.082;38.804;2023-03-01T03:55:06;98978.44;;;-7.77;63.16
74631;BME280;63138;55.082;38.804;2023-03-01T03:57:35;98966.69;;;-7.87;63.54
74631;BME280;63138;55.082;38.804;2023-03-01T04:00:01;98973.53;;;-7.83;63.50
74631;BME280;63138;55.082;38.804;2023-03-01T04:02:40;98978.19;;;-7.88;64.11
74631;BME280;63138;55.082;38.804;2023-03-01T04:05:07;98975.72;;;-7.91;64.24
74631;BME280;63138;55.082;38.804;2023-03-01T04:07:35;98977.50;;;-7.92;64.33
74631;BME280;63138;55.082;38.804;2023-03-01T04:10:05;98984.59;;;-7.92;64.44
74631;BME280;63138;55.082;38.804;2023-03-01T04:12:33;98973.59;;;-8.00;64.23
74631;BME280;63138;55.082;38.804;2023-03-01T04:15:05;98990.09;;;-7.97;64.58
74631;BME280;63138;55.082;38.804;2023-03-01T04:17:41;98972.00;;;-8.03;64.95
74631;BME280;63138;55.082;38.804;2023-03-01T04:20:13;98987.38;;;-7.95;64.43
74631;BME280;63138;55.082;38.804;2023-03-01T04:22:43;98984.75;;;-7.95;64.89
74631;BME280;63138;55.082;38.804;2023-03-01T04:25:12;98997.16;;;-7.97;65.16
74631;BME280;63138;55.082;38.804;2023-03-01T04:27:40;98984.13;;;-8.00;64.99
74631;BME280;63138;55.082;38.804;2023-03-01T04:30:07;98988.13;;;-7.93;64.94
74631;BME280;63138;55.082;38.804;2023-03-01T04:32:33;98997.56;;;-7.89;65.47
74631;BME280;63138;55.082;38.804;2023-03-01T04:35:00;98997.50;;;-7.88;64.99
74631;BME280;63138;55.082;38.804;2023-03-01T04:37:26;99003.44;;;-7.84;65.51
74631;BME280;63138;55.082;38.804;2023-03-01T04:39:52;98993.06;;;-7.87;65.13
74631;BME280;63138;55.082;38.804;2023-03-01T04:42:18;98999.69;;;-7.80;65.05
74631;BME280;63138;55.082;38.804;2023-03-01T04:44:45;98999.47;;;-7.75;65.39
74631;BME280;63138;55.082;38.804;2023-03-01T04:47:11;99010.78;;;-7.73;64.91
74631;BME280;63138;55.082;38.804;2023-03-01T04:49:37;99011.44;;;-7.70;64.95
74631;BME280;63138;55.082;38.804;2023-03-01T04:52:04;99015.69;;;-7.67;65.24
74631;BME280;63138;55.082;38.804;2023-03-01T04:54:34;99008.56;;;-7.65;65.10
74631;BME280;63138;55.082;38.804;2023-03-01T04:57:00;99011.09;;;-7.63;64.79
74631;BME280;63138;55.082;38.804;2023-03-01T04:59:27;98995.97;;;-7.76;64.92
74631;BME280;63138;55.082;38.804;2023-03-01T05:01:54;99014.34;;;-7.58;65.06
74631;BME280;63138;55.082;38.804;2023-03-01T05:04:22;99015.09;;;-7.56;65.35
74631;BME280;63138;55.082;38.804;2023-03-01T05:06:48;99010.63;;;-7.54;64.67
74631;BME280;63138;55.082;38.804;2023-03-01T05:09:14;99019.09;;;-7.49;65.36
74631;BME280;63138;55.082;38.804;2023-03-01T05:11:39;99020.56;;;-7.43;65.07
74631;BME280;63138;55.082;38.804;2023-03-01T05:14:07;99027.44;;;-7.41;65.08
74631;BME280;63138;55.082;38.804;2023-03-01T05:16:33;99016.91;;;-7.41;64.77
74631;BME280;63138;55.082;38.804;2023-03-01T05:18:59;99022.00;;;-7.38;64.79
74631;BME280;63138;55.082;38.804;2023-03-01T05:21:25;99030.31;;;-7.30;64.97
74631;BME280;63138;55.082;38.804;2023-03-01T05:23:52;99036.94;;;-7.22;64.30
74631;BME280;63138;55.082;38.804;2023-03-01T05:26:19;99023.69;;;-7.21;64.22
74631;BME280;63138;55.082;38.804;2023-03-01T05:28:47;99033.03;;;-7.15;64.19
74631;BME280;63138;55.082;38.804;2023-03-01T05:31:13;99031.06;;;-7.12;63.81
74631;BME280;63138;55.082;38.804;2023-03-01T05:33:40;99034.22;;;-7.05;64.77
74631;BME280;63138;55.082;38.804;2023-03-01T05:36:07;99036.59;;;-7.00;64.28
74631;BME280;63138;55.082;38.804;2023-03-01T05:38:33;99043.31;;;-6.95;63.85
74631;BME280;63138;55.082;38.804;2023-03-01T05:40:59;99039.56;;;-6.90;63.69
74631;BME280;63138;55.082;38.804;2023-03-01T05:43:25;99037.41;;;-6.84;63.72
74631;BME280;63138;55.082;38.804;2023-03-01T05:45:51;99043.44;;;-6.82;63.29
74631;BME280;63138;55.082;38.804;2023-03-01T05:48:17;99044.72;;;-6.73;63.25
74631;BME280;63138;55.082;38.804;2023-03-01T05:50:45;99040.31;;;-6.58;62.81
74631;BME280;63138;55.082;38.804;2023-03-01T05:53:16;99051.75;;;-6.43;62.69
74631;BME280;63138;55.082;38.804;2023-03-01T05:55:43;99034.03;;;-5.84;60.94
74631;BME280;63138;55.082;38.804;2023-03-01T05:58:12;99036.88;;;-4.76;57.18
74631;BME280;63138;55.082;38.804;2023-03-01T06:00:41;99064.34;;;-4.12;55.21
74631;BME280;63138;55.082;38.804;2023-03-01T06:03:10;99050.00;;;-3.84;53.92
74631;BME280;63138;55.082;38.804;2023-03-01T06:05:36;99049.59;;;-3.28;52.17
74631;BME280;63138;55.082;38.804;2023-03-01T06:08:03;99049.00;;;-2.47;50.64
74631;BME280;63138;55.082;38.804;2023-03-01T06:10:29;99049.63;;;-1.97;48.93
74631;BME280;63138;55.082;38.804;2023-03-01T06:12:56;99054.31;;;-2.01;48.42
74631;BME280;63138;55.082;38.804;2023-03-01T06:15:23;99048.41;;;-1.93;47.76
74631;BME280;63138;55.082;38.804;2023-03-01T06:17:49;99051.16;;;-2.06;47.94
74631;BME280;63138;55.082;38.804;2023-03-01T06:20:21;99056.91;;;-1.31;46.73
74631;BME280;63138;55.082;38.804;2023-03-01T06:22:48;99053.50;;;-0.79;45.08
74631;BME280;63138;55.082;38.804;2023-03-01T06:25:17;99067.69;;;-0.46;44.15
74631;BME280;63138;55.082;38.804;2023-03-01T06:27:43;99052.72;;;-0.37;43.74
74631;BME280;63138;55.082;38.804;2023-03-01T06:30:11;99066.91;;;-0.36;43.17
74631;BME280;63138;55.082;38.804;2023-03-01T06:32:38;99075.38;;;-0.31;43.10
74631;BME280;63138;55.082;38.804;2023-03-01T06:35:11;99065.22;;;0.05;42.71
74631;BME280;63138;55.082;38.804;2023-03-01T06:37:39;99068.56;;;-0.89;43.21
74631;BME280;63138;55.082;38.804;2023-03-01T06:40:06;99078.34;;;-0.78;43.46
74631;BME280;63138;55.082;38.804;2023-03-01T06:42:40;99077.38;;;-0.88;43.94
74631;BME280;63138;55.082;38.804;2023-03-01T06:45:07;99074.00;;;-0.26;43.05
74631;BME280;63138;55.082;38.804;2023-03-01T06:47:33;99085.16;;;-0.53;42.49
74631;BME280;63138;55.082;38.804;2023-03-01T06:50:01;99069.44;;;-1.00;43.43
74631;BME280;63138;55.082;38.804;2023-03-01T06:52:28;99082.16;;;-0.27;43.02
74631;BME280;63138;55.082;38.804;2023-03-01T06:54:54;99080.72;;;-0.64;42.55
74631;BME280;63138;55.082;38.804;2023-03-01T06:57:20;99082.31;;;-0.61;42.74
74631;BME280;63138;55.082;38.804;2023-03-01T06:59:47;99088.94;;;-0.23;42.03
74631;BME280;63138;55.082;38.804;2023-03-01T07:02:31;99077.56;;;-0.25;41.91
74631;BME280;63138;55.082;38.804;2023-03-01T07:04:57;99077.47;;;-0.14;42.04
74631;BME280;63138;55.082;38.804;2023-03-01T07:07:24;99081.41;;;-0.18;42.36
74631;BME280;63138;55.082;38.804;2023-03-01T07:09:50;99083.34;;;0.22;41.84
74631;BME280;63138;55.082;38.804;2023-03-01T07:12:16;99072.44;;;0.14;40.81
74631;BME280;63138;55.082;38.804;2023-03-01T07:14:43;99086.13;;;0.82;40.36
74631;BME280;63138;55.082;38.804;2023-03-01T07:17:09;99099.88;;;0.16;40.96
74631;BME280;63138;55.082;38.804;2023-03-01T07:19:53;99088.16;;;1.00;39.96
74631;BME280;63138;55.082;38.804;2023-03-01T07:22:19;99100.06;;;-0.18;41.23
74631;BME280;63138;55.082;38.804;2023-03-01T07:24:45;99099.06;;;0.77;40.64
74631;BME280;63138;55.082;38.804;2023-03-01T07:27:12;99097.63;;;0.73;39.71
74631;BME280;63138;55.082;38.804;2023-03-01T07:29:38;99099.38;;;0.53;40.55
74631;BME280;63138;55.082;38.804;2023-03-01T07:32:05;99099.63;;;0.19;41.08
74631;BME280;63138;55.082;38.804;2023-03-01T07:34:31;99106.34;;;-0.40;42.32
74631;BME280;63138;55.082;38.804;2023-03-01T07:37:16;99102.91;;;-0.63;42.73
74631;BME280;63138;55.082;38.804;2023-03-01T07:39:42;99109.88;;;0.45;41.64
74631;BME280;63138;55.082;38.804;2023-03-01T07:42:08;99103.13;;;1.22;39.97
74631;BME280;63138;55.082;38.804;2023-03-01T07:44:34;99092.75;;;0.78;39.90
74631;BME280;63138;55.082;38.804;2023-03-01T07:47:00;99109.28;;;1.03;39.53
74631;BME280;63138;55.082;38.804;2023-03-01T07:49:26;99107.50;;;0.72;40.69
74631;BME280;63138;55.082;38.804;2023-03-01T07:51:52;99117.06;;;-0.19;41.56
74631;BME280;63138;55.082;38.804;2023-03-01T07:54:21;99131.22;;;-0.40;42.48
74631;BME280;63138;55.082;38.804;2023-03-01T07:56:48;99119.25;;;-0.24;42.31
74631;BME280;63138;55.082;38.804;2023-03-01T07:59:14;99132.94;;;0.46;41.52
74631;BME280;63138;55.082;38.804;2023-03-01T08:01:40;99119.59;;;0.76;40.96
74631;BME280;63138;55.082;38.804;2023-03-01T08:04:07;99133.03;;;0.34;40.86
74631;BME280;63138;55.082;38.804;2023-03-01T08:06:34;99123.09;;;0.77;41.08
74631;BME280;63138;55.082;38.804;2023-03-01T08:09:00;99130.31;;;0.86;40.20
74631;BME280;63138;55.082;38.804;2023-03-01T08:11:26;99131.69;;;0.81;40.90
74631;BME280;63138;55.082;38.804;2023-03-01T08:14:12;99124.81;;;0.78;40.54
74631;BME280;63138;55.082;38.804;2023-03-01T08:16:38;99132.44;;;1.33;39.66
74631;BME280;63138;55.082;38.804;2023-03-01T08:19:09;99123.69;;;1.31;39.42
74631;BME280;63138;55.082;38.804;2023-03-01T08:21:35;99123.13;;;1.18;40.01
74631;BME280;63138;55.082;38.804;2023-03-01T08:24:05;99146.88;;;0.70;40.03
74631;BME280;63138;55.082;38.804;2023-03-01T08:26:50;99139.31;;;1.26;40.02
74631;BME280;63138;55.082;38.804;2023-03-01T08:29:15;99149.47;;;0.91;40.03
74631;BME280;63138;55.082;38.804;2023-03-01T08:31:41;99136.88;;;1.03;40.19
74631;BME280;63138;55.082;38.804;2023-03-01T08:34:13;99140.63;;;0.91;40.90
74631;BME280;63138;55.082;38.804;2023-03-01T08:36:41;99144.09;;;0.82;40.62
74631;BME280;63138;55.082;38.804;2023-03-01T08:39:11;99148.38;;;0.21;41.90
74631;BME280;63138;55.082;38.804;2023-03-01T08:41:38;99148.22;;;0.13;42.51
74631;BME280;63138;55.082;38.804;2023-03-01T08:44:04;99157.03;;;0.86;41.27
74631;BME280;63138;55.082;38.804;2023-03-01T08:46:37;99148.53;;;0.71;42.08
74631;BME280;63138;55.082;38.804;2023-03-01T08:49:04;99151.06;;;0.94;40.69
74631;BME280;63138;55.082;38.804;2023-03-01T08:51:31;99147.72;;;0.29;42.04
74631;BME280;63138;55.082;38.804;2023-03-01T08:54:04;99160.88;;;0.63;41.81
74631;BME280;63138;55.082;38.804;2023-03-01T08:56:31;99156.19;;;0.55;41.44
74631;BME280;63138;55.082;38.804;2023-03-01T08:58:57;99146.94;;;0.59;41.64
74631;BME280;63138;55.082;38.804;2023-03-01T09:01:22;99144.34;;;0.79;40.89
74631;BME280;63138;55.082;38.804;2023-03-01T09:03:49;99161.75;;;0.94;41.36
74631;BME280;63138;55.082;38.804;2023-03-01T09:06:15;99166.38;;;0.92;40.92
74631;BME280;63138;55.082;38.804;2023-03-01T09:08:43;99158.34;;;1.23;40.57
74631;BME280;63138;55.082;38.804;2023-03-01T09:11:11;99159.50;;;1.49;40.11
74631;BME280;63138;55.082;38.804;2023-03-01T09:13:38;99152.22;;;1.61;39.71
74631;BME280;63138;55.082;38.804;2023-03-01T09:16:05;99158.00;;;1.66;39.51
74631;BME280;63138;55.082;38.804;2023-03-01T09:18:34;99156.44;;;1.74;39.81
74631;BME280;63138;55.082;38.804;2023-03-01T09:21:04;99160.69;;;1.96;39.18
74631;BME280;63138;55.082;38.804;2023-03-01T09:23:36;99166.19;;;1.84;39.19
74631;BME280;63138;55.082;38.804;2023-03-01T09:26:05;99140.09;;;1.57;39.84
74631;BME280;63138;55.082;38.804;2023-03-01T09:28:32;99153.75;;;2.32;38.31
74631;BME280;63138;55.082;38.804;2023-03-01T09:30:59;99153.19;;;2.28;38.29
74631;BME280;63138;55.082;38.804;2023-03-01T09:33:27;99153.94;;;1.91;38.09
74631;BME280;63138;55.082;38.804;2023-03-01T09:36:01;99162.03;;;1.41;40.22
74631;BME280;63138;55.082;38.804;2023-03-01T09:38:27;99160.31;;;1.21;39.99
74631;BME280;63138;55.082;38.804;2023-03-01T09:40:54;99162.09;;;1.20;40.77
74631;BME280;63138;55.082;38.804;2023-03-01T09:43:45;99160.63;;;1.37;39.74
74631;BME280;63138;55.082;38.804;2023-03-01T09:46:14;99164.13;;;1.38;40.36
74631;BME280;63138;55.082;38.804;2023-03-01T09:48:49;99181.28;;;0.43;40.41
74631;BME280;63138;55.082;38.804;2023-03-01T09:51:29;99173.53;;;0.40;41.31
74631;BME280;63138;55.082;38.804;2023-03-01T09:53:55;99162.56;;;0.85;41.32
74631;BME280;63138;55.082;38.804;2023-03-01T09:56:25;99168.81;;;1.05;40.40
74631;BME280;63138;55.082;38.804;2023-03-01T10:04:49;99159.66;;;1.07;40.84
74631;BME280;63138;55.082;38.804;2023-03-01T10:09:52;99169.34;;;0.47;41.28
74631;BME280;63138;55.082;38.804;2023-03-01T10:12:20;99170.22;;;0.26;42.07
74631;BME280;63138;55.082;38.804;2023-03-01T10:14:57;99158.03;;;-0.09;42.76
74631;BME280;63138;55.082;38.804;2023-03-01T10:17:33;99175.31;;;0.29;42.30
74631;BME280;63138;55.082;38.804;2023-03-01T10:22:39;99170.22;;;0.26;43.02
74631;BME280;63138;55.082;38.804;2023-03-01T10:25:12;99154.25;;;0.15;43.42
74631;BME280;63138;55.082;38.804;2023-03-01T10:27:52;99157.91;;;0.14;43.79
74631;BME280;63138;55.082;38.804;2023-03-01T10:32:54;99167.38;;;-0.47;44.30
74631;BME280;63138;55.082;38.804;2023-03-01T10:35:23;99167.22;;;-0.34;44.67
74631;BME280;63138;55.082;38.804;2023-03-01T10:40:33;99173.13;;;-0.30;45.34
74631;BME280;63138;55.082;38.804;2023-03-01T10:43:01;99144.75;;;-0.31;44.56
74631;BME280;63138;55.082;38.804;2023-03-01T10:50:45;99166.34;;;-0.34;45.47
74631;BME280;63138;55.082;38.804;2023-03-01T10:53:28;99166.38;;;-0.46;45.25
74631;BME280;63138;55.082;38.804;2023-03-01T10:56:30;99163.91;;;-0.26;45.40
74631;BME280;63138;55.082;38.804;2023-03-01T10:59:00;99172.78;;;-0.37;46.05
74631;BME280;63138;55.082;38.804;2023-03-01T11:01:34;99150.13;;;-0.86;45.78
74631;BME280;63138;55.082;38.804;2023-03-01T11:06:37;99171.53;;;-0.99;47.30
74631;BME280;63138;55.082;38.804;2023-03-01T11:09:19;99170.94;;;-1.14;47.73
74631;BME280;63138;55.082;38.804;2023-03-01T11:12:16;99165.59;;;-1.03;47.87
74631;BME280;63138;55.082;38.804;2023-03-01T11:14:47;99165.63;;;-1.25;47.92
74631;BME280;63138;55.082;38.804;2023-03-01T11:17:20;99173.13;;;-1.42;47.99
74631;BME280;63138;55.082;38.804;2023-03-01T11:20:25;99165.00;;;-1.18;47.76
74631;BME280;63138;55.082;38.804;2023-03-01T11:23:13;99157.63;;;-1.37;47.65
74631;BME280;63138;55.082;38.804;2023-03-01T11:25:42;99174.72;;;-1.17;47.94
74631;BME280;63138;55.082;38.804;2023-03-01T11:28:17;99167.31;;;-1.36;47.86
74631;BME280;63138;55.082;38.804;2023-03-01T11:31:00;99181.72;;;-1.27;47.35
74631;BME280;63138;55.082;38.804;2023-03-01T11:38:48;99184.63;;;-1.41;46.16
74631;BME280;63138;55.082;38.804;2023-03-01T11:41:17;99178.28;;;-1.63;45.79
74631;BME280;63138;55.082;38.804;2023-03-01T11:49:16;99194.13;;;-1.73;46.27
74631;BME280;63138;55.082;38.804;2023-03-01T11:55:26;99203.28;;;-2.12;46.56
74631;BME280;63138;55.082;38.804;2023-03-01T12:06:12;99220.56;;;-2.18;47.71
74631;BME280;63138;55.082;38.804;2023-03-01T12:22:23;99200.84;;;-2.15;47.37
74631;BME280;63138;55.082;38.804;2023-03-01T12:24:58;99209.84;;;-2.05;47.46
74631;BME280;63138;55.082;38.804;2023-03-01T12:28:18;99195.94;;;-2.08;48.31
74631;BME280;63138;55.082;38.804;2023-03-01T12:33:58;99206.91;;;-2.13;49.06
74631;BME280;63138;55.082;38.804;2023-03-01T12:50:42;99219.75;;;-2.31;48.62
74631;BME280;63138;55.082;38.804;2023-03-01T12:53:34;99213.28;;;-2.40;48.27
74631;BME280;63138;55.082;38.804;2023-03-01T12:56:13;99215.53;;;-2.34;48.15
74631;BME280;63138;55.082;38.804;2023-03-01T13:04:31;99225.69;;;-2.27;49.02
74631;BME280;63138;55.082;38.804;2023-03-01T13:10:33;99229.97;;;-2.25;48.98
74631;BME280;63138;55.082;38.804;2023-03-01T13:15:35;99241.53;;;-2.02;48.36
74631;BME280;63138;55.082;38.804;2023-03-01T13:23:30;99236.44;;;-2.29;49.53
74631;BME280;63138;55.082;38.804;2023-03-01T13:30:58;99241.91;;;-2.43;49.91
74631;BME280;63138;55.082;38.804;2023-03-01T13:35:54;99240.88;;;-2.41;49.84
74631;BME280;63138;55.082;38.804;2023-03-01T13:38:44;99241.38;;;-2.36;49.41
74631;BME280;63138;55.082;38.804;2023-03-01T13:41:15;99229.88;;;-2.36;49.89
74631;BME280;63138;55.082;38.804;2023-03-01T13:43:44;99237.75;;;-2.35;50.23
74631;BME280;63138;55.082;38.804;2023-03-01T13:46:19;99243.13;;;-2.23;49.82
74631;BME280;63138;55.082;38.804;2023-03-01T13:48:54;99246.13;;;-2.28;49.78
74631;BME280;63138;55.082;38.804;2023-03-01T13:51:26;99231.75;;;-2.25;50.03
74631;BME280;63138;55.082;38.804;2023-03-01T13:53:56;99228.88;;;-2.22;50.02
74631;BME280;63138;55.082;38.804;2023-03-01T13:56:29;99215.56;;;-2.46;50.26
74631;BME280;63138;55.082;38.804;2023-03-01T13:59:02;99236.47;;;-2.66;50.14
74631;BME280;63138;55.082;38.804;2023-03-01T14:01:33;99227.19;;;-2.60;50.61
74631;BME280;63138;55.082;38.804;2023-03-01T14:03:59;99228.13;;;-2.61;50.33
74631;BME280;63138;55.082;38.804;2023-03-01T14:06:30;99221.56;;;-2.69;50.60
74631;BME280;63138;55.082;38.804;2023-03-01T14:09:16;99230.53;;;-2.70;50.31
74631;BME280;63138;55.082;38.804;2023-03-01T14:11:59;99225.63;;;-2.76;50.26
74631;BME280;63138;55.082;38.804;2023-03-01T14:17:55;99231.31;;;-2.93;51.52
74631;BME280;63138;55.082;38.804;2023-03-01T14:20:37;99220.56;;;-3.04;51.52
74631;BME280;63138;55.082;38.804;2023-03-01T14:23:14;99223.13;;;-3.03;51.58
74631;BME280;63138;55.082;38.804;2023-03-01T14:25:57;99220.81;;;-3.08;51.87
74631;BME280;63138;55.082;38.804;2023-03-01T14:28:29;99211.22;;;-3.10;52.20
74631;BME280;63138;55.082;38.804;2023-03-01T14:33:55;99221.66;;;-3.20;52.25
74631;BME280;63138;55.082;38.804;2023-03-01T14:36:27;99213.78;;;-3.21;52.60
74631;BME280;63138;55.082;38.804;2023-03-01T14:38:53;99213.91;;;-3.23;52.44
74631;BME280;63138;55.082;38.804;2023-03-01T14:41:21;99206.28;;;-3.28;52.69
74631;BME280;63138;55.082;38.804;2023-03-01T14:43:55;99212.81;;;-3.33;52.71
74631;BME280;63138;55.082;38.804;2023-03-01T14:46:26;99199.56;;;-3.33;52.88
74631;BME280;63138;55.082;38.804;2023-03-01T14:49:02;99202.97;;;-3.31;53.37
74631;BME280;63138;55.082;38.804;2023-03-01T14:51:29;99205.00;;;-3.35;53.51
74631;BME280;63138;55.082;38.804;2023-03-01T14:53:55;99208.25;;;-3.44;53.83
74631;BME280;63138;55.082;38.804;2023-03-01T14:56:21;99209.34;;;-3.47;54.26
74631;BME280;63138;55.082;38.804;2023-03-01T14:58:53;99209.78;;;-3.53;54.35
74631;BME280;63138;55.082;38.804;2023-03-01T15:01:23;99206.13;;;-3.52;54.31
74631;BME280;63138;55.082;38.804;2023-03-01T15:03:49;99205.50;;;-3.55;54.38
74631;BME280;63138;55.082;38.804;2023-03-01T15:06:21;99204.66;;;-3.56;54.61